Time;durP1;ratioP1;P1;durP2;ratioP2;P2;SDS_P1;SDS_P2;PMS_P1;PMS_P2;Temp;Humidity;BMP_temperature;BMP_pressure;BME280_temperature;BME280_humidity;BME280_pressure;Samples;Min_cycle;Max_cycle;Signal;HPM_P1;HPM_P2
2023/12/19 00:00:35;;;;;;;22.97;13.63;;;5.90;99.90;;;;;;4962391;28;20249;-67
2023/12/19 00:03:01;;;;;;;16.57;12.80;;;5.90;99.90;;;;;;4963411;28;20552;-67
2023/12/19 00:05:26;;;;;;;16.63;14.20;;;5.90;99.90;;;;;;4958559;28;20266;-67
2023/12/19 00:07:52;;;;;;;18.17;13.90;;;6.00;99.90;;;;;;4958674;28;20241;-67
2023/12/19 00:10:18;;;;;;;20.63;14.77;;;6.00;99.90;;;;;;4959541;28;20630;-67
2023/12/19 00:12:43;;;;;;;17.80;12.63;;;5.90;99.90;;;;;;4959422;28;20949;-67
2023/12/19 00:15:09;;;;;;;18.30;13.57;;;5.90;99.90;;;;;;4959741;28;20190;-67
2023/12/19 00:17:36;;;;;;;18.43;13.43;;;5.80;99.90;;;;;;4957422;28;20183;-67
2023/12/19 00:20:01;;;;;;;19.40;14.07;;;5.70;99.90;;;;;;4958686;28;20778;-67
2023/12/19 00:22:27;;;;;;;20.03;14.90;;;5.70;99.90;;;;;;4954721;28;20419;-67
2023/12/19 00:24:53;;;;;;;19.63;13.47;;;5.60;99.90;;;;;;4953338;28;20247;-67
2023/12/19 00:27:18;;;;;;;20.73;14.50;;;5.60;99.90;;;;;;4956833;28;20217;-67
2023/12/19 00:29:44;;;;;;;18.83;14.63;;;5.50;99.90;;;;;;4955273;28;20202;-67
2023/12/19 00:32:10;;;;;;;22.33;14.73;;;5.40;99.90;;;;;;4955936;28;20274;-67
2023/12/19 00:34:35;;;;;;;23.97;15.70;;;5.40;99.90;;;;;;4953397;28;20206;-67
2023/12/19 00:37:01;;;;;;;19.30;14.53;;;5.20;99.90;;;;;;4960837;28;20553;-67
2023/12/19 00:39:27;;;;;;;24.20;15.83;;;5.20;99.90;;;;;;4952191;28;20187;-67
2023/12/19 00:41:53;;;;;;;22.50;15.33;;;5.20;99.90;;;;;;4954707;28;20210;-67
2023/12/19 00:44:19;;;;;;;23.30;15.83;;;5.20;99.90;;;;;;4958588;28;20834;-67
2023/12/19 00:46:44;;;;;;;19.97;14.67;;;5.20;99.90;;;;;;4956352;28;20223;-67
2023/12/19 00:49:10;;;;;;;22.30;15.77;;;5.20;99.90;;;;;;4959514;28;20198;-67
2023/12/19 00:51:36;;;;;;;20.63;14.70;;;5.20;99.90;;;;;;4963006;28;20183;-67
2023/12/19 00:54:02;;;;;;;20.90;14.90;;;5.20;99.90;;;;;;4965438;28;20450;-67
2023/12/19 00:56:28;;;;;;;18.90;13.90;;;5.20;99.90;;;;;;4962114;28;22209;-67
2023/12/19 00:58:53;;;;;;;21.60;16.03;;;5.20;99.90;;;;;;4966525;28;20194;-67
2023/12/19 01:01:26;;;;;;;22.53;15.00;;;5.10;99.90;;;;;;4959288;28;20206;-67
2023/12/19 01:03:51;;;;;;;24.10;15.77;;;4.90;99.90;;;;;;4962080;28;20589;-67
2023/12/19 01:06:17;;;;;;;22.30;16.17;;;4.90;99.90;;;;;;4957047;28;20469;-67
2023/12/19 01:08:43;;;;;;;22.07;14.73;;;4.90;99.90;;;;;;4958940;28;20588;-67
2023/12/19 01:11:10;;;;;;;24.90;17.70;;;4.80;99.90;;;;;;4957457;28;20657;-67
2023/12/19 01:13:36;;;;;;;25.27;16.67;;;4.80;99.90;;;;;;4953830;28;20225;-67
2023/12/19 01:16:03;;;;;;;23.90;16.77;;;4.70;99.90;;;;;;4961524;28;20504;-67
2023/12/19 01:18:28;;;;;;;22.77;15.70;;;4.60;99.90;;;;;;4957888;28;20526;-67
2023/12/19 01:20:54;;;;;;;24.40;16.50;;;4.60;99.90;;;;;;4965381;28;20634;-67
2023/12/19 01:23:20;;;;;;;23.00;16.17;;;4.60;99.90;;;;;;4951298;28;20572;-67
2023/12/19 01:25:45;;;;;;;25.80;16.17;;;4.70;99.90;;;;;;4954304;28;20254;-67
2023/12/19 01:28:11;;;;;;;19.93;14.93;;;4.70;99.90;;;;;;4950426;28;20187;-67
2023/12/19 01:30:37;;;;;;;19.10;15.33;;;4.70;99.90;;;;;;4953746;28;20642;-67
2023/12/19 01:33:03;;;;;;;25.60;16.37;;;4.80;99.90;;;;;;4961150;28;20462;-67
2023/12/19 01:35:29;;;;;;;21.73;15.80;;;4.60;99.90;;;;;;4958706;28;20667;-67
2023/12/19 01:37:54;;;;;;;21.20;16.00;;;4.50;99.90;;;;;;4955765;28;20442;-67
2023/12/19 01:40:20;;;;;;;22.77;17.40;;;4.60;99.90;;;;;;4969485;28;20277;-67
2023/12/19 01:42:46;;;;;;;28.00;17.00;;;4.50;99.90;;;;;;4958448;28;20183;-67
2023/12/19 01:45:13;;;;;;;24.60;17.50;;;4.50;99.90;;;;;;4956818;28;20210;-67
2023/12/19 01:47:43;;;;;;;21.17;15.23;;;4.50;99.90;;;;;;4956362;28;20198;-67
2023/12/19 01:50:11;;;;;;;20.30;14.50;;;4.60;99.90;;;;;;4957503;28;20445;-67
2023/12/19 01:52:39;;;;;;;21.07;16.47;;;4.60;99.90;;;;;;4955829;28;20909;-67
2023/12/19 01:55:06;;;;;;;20.17;15.80;;;4.50;99.90;;;;;;4959896;28;20492;-67
2023/12/19 01:57:33;;;;;;;22.33;16.50;;;4.50;99.90;;;;;;4956058;28;20442;-67
2023/12/19 01:59:59;;;;;;;23.50;15.40;;;4.50;99.90;;;;;;4956790;28;20437;-67
2023/12/19 02:02:25;;;;;;;23.93;16.40;;;4.60;99.90;;;;;;4954115;28;21073;-67
2023/12/19 02:04:53;;;;;;;20.37;14.33;;;4.60;99.90;;;;;;4964338;28;20478;-67
2023/12/19 02:07:18;;;;;;;23.77;16.70;;;4.60;99.90;;;;;;4956325;28;20447;-67
2023/12/19 02:09:44;;;;;;;21.67;16.23;;;4.50;99.90;;;;;;4959356;28;20905;-68
2023/12/19 02:12:09;;;;;;;27.60;17.87;;;4.50;99.90;;;;;;4958652;28;20193;-67
2023/12/19 02:14:35;;;;;;;21.93;17.20;;;4.50;99.90;;;;;;4957328;28;20206;-67
2023/12/19 02:17:00;;;;;;;22.07;16.70;;;4.40;99.90;;;;;;4956352;28;20565;-67
2023/12/19 02:19:26;;;;;;;29.50;16.13;;;4.50;99.90;;;;;;4957909;28;20187;-67
2023/12/19 02:21:52;;;;;;;24.60;15.80;;;4.50;99.90;;;;;;4958397;28;20249;-67
2023/12/19 02:24:17;;;;;;;23.00;16.20;;;4.50;99.90;;;;;;4958708;28;20692;-67
2023/12/19 02:26:43;;;;;;;21.83;14.00;;;4.50;99.90;;;;;;4964468;28;20218;-67
2023/12/19 02:29:08;;;;;;;20.07;15.37;;;4.60;99.90;;;;;;4960330;28;20281;-67
2023/12/19 02:31:34;;;;;;;22.33;14.70;;;4.50;99.90;;;;;;4960004;28;20222;-67
2023/12/19 02:34:00;;;;;;;22.20;14.90;;;4.60;99.90;;;;;;4964001;28;20258;-67
2023/12/19 02:36:25;;;;;;;20.63;16.47;;;4.60;99.90;;;;;;4959193;28;20193;-67
2023/12/19 02:38:51;;;;;;;19.87;15.07;;;4.50;99.90;;;;;;4969153;28;20186;-67
2023/12/19 02:41:16;;;;;;;21.67;15.00;;;4.50;99.90;;;;;;4963944;28;20226;-67
2023/12/19 02:43:42;;;;;;;22.07;15.00;;;4.40;99.90;;;;;;4969955;28;20213;-67
2023/12/19 02:46:07;;;;;;;18.67;13.87;;;4.30;99.90;;;;;;4963203;28;20657;-67
2023/12/19 02:48:33;;;;;;;24.33;15.77;;;4.30;99.90;;;;;;4965218;28;20555;-67
2023/12/19 02:50:58;;;;;;;23.77;15.23;;;4.30;99.90;;;;;;4960997;28;20179;-67
2023/12/19 02:53:24;;;;;;;23.20;15.23;;;4.30;99.90;;;;;;4968891;28;20207;-67
2023/12/19 02:55:50;;;;;;;21.30;14.90;;;4.20;99.90;;;;;;4968246;28;20229;-67
2023/12/19 02:58:15;;;;;;;21.30;14.40;;;4.20;99.90;;;;;;4965026;28;20237;-67
2023/12/19 03:00:41;;;;;;;21.77;14.37;;;4.30;99.90;;;;;;4965051;28;20665;-67
2023/12/19 03:03:06;;;;;;;17.50;13.27;;;4.30;99.90;;;;;;4966492;28;20832;-67
2023/12/19 03:05:32;;;;;;;20.53;14.70;;;4.20;99.90;;;;;;4964963;28;20700;-67
2023/12/19 03:07:58;;;;;;;17.33;13.27;;;4.10;99.90;;;;;;4966407;28;20445;-67
2023/12/19 03:10:23;;;;;;;21.73;14.53;;;4.00;99.90;;;;;;4955945;28;20191;-67
2023/12/19 03:12:49;;;;;;;19.10;14.00;;;4.00;99.90;;;;;;4963690;28;20597;-67
2023/12/19 03:15:15;;;;;;;19.70;13.63;;;4.00;99.90;;;;;;4964106;28;20261;-67
2023/12/19 03:17:41;;;;;;;17.60;13.60;;;4.10;99.90;;;;;;4965354;28;20449;-67
2023/12/19 03:20:08;;;;;;;16.97;13.10;;;4.20;99.90;;;;;;4969786;28;20213;-66
2023/12/19 03:22:34;;;;;;;17.47;13.77;;;4.20;99.90;;;;;;4964308;28;20201;-66
2023/12/19 03:25:00;;;;;;;19.67;14.57;;;4.20;99.90;;;;;;4966018;28;20501;-66
2023/12/19 03:27:26;;;;;;;18.03;13.50;;;4.20;99.90;;;;;;4961503;28;20437;-66
2023/12/19 03:29:51;;;;;;;19.47;12.90;;;4.10;99.90;;;;;;4964560;28;20871;-67
2023/12/19 03:32:17;;;;;;;18.80;13.40;;;4.10;99.90;;;;;;4965914;28;20564;-66
2023/12/19 03:34:42;;;;;;;19.30;13.77;;;4.00;99.90;;;;;;4966350;28;20574;-66
2023/12/19 03:37:08;;;;;;;21.90;13.63;;;4.10;99.90;;;;;;4964343;28;20183;-66
2023/12/19 03:39:33;;;;;;;15.50;11.93;;;4.00;99.90;;;;;;4963831;28;20193;-66
2023/12/19 03:41:59;;;;;;;20.33;13.03;;;3.80;99.90;;;;;;4962097;28;20180;-67
2023/12/19 03:44:25;;;;;;;16.10;12.17;;;3.80;99.90;;;;;;4966361;28;20257;-66
2023/12/19 03:46:50;;;;;;;17.40;11.90;;;3.80;99.90;;;;;;4963648;28;20206;-67
2023/12/19 03:49:16;;;;;;;18.10;12.90;;;3.70;99.90;;;;;;4959838;28;20218;-67
2023/12/19 03:51:41;;;;;;;17.10;13.03;;;3.90;99.90;;;;;;4954263;28;20191;-67
2023/12/19 03:54:07;;;;;;;18.67;12.00;;;3.90;99.90;;;;;;4961194;28;20207;-67
2023/12/19 03:56:32;;;;;;;19.23;13.10;;;3.90;99.90;;;;;;4964516;28;20234;-67
2023/12/19 03:58:58;;;;;;;19.30;13.33;;;3.90;99.90;;;;;;4964954;28;20681;-67
2023/12/19 04:01:25;;;;;;;15.87;11.53;;;3.90;99.90;;;;;;4958183;28;20198;-67
2023/12/19 04:03:51;;;;;;;19.13;11.87;;;3.80;99.90;;;;;;4963342;28;20261;-67
2023/12/19 04:06:16;;;;;;;19.80;12.30;;;3.80;99.90;;;;;;4963142;28;21124;-67
2023/12/19 04:08:42;;;;;;;16.23;12.03;;;3.80;99.90;;;;;;4963797;28;20194;-67
2023/12/19 04:11:07;;;;;;;18.67;11.60;;;3.80;99.90;;;;;;4962113;28;20183;-67
2023/12/19 04:13:33;;;;;;;14.73;12.27;;;3.80;99.90;;;;;;4959190;28;20237;-67
2023/12/19 04:15:59;;;;;;;18.80;12.17;;;3.80;99.90;;;;;;4963773;28;20194;-67
2023/12/19 04:18:24;;;;;;;17.60;12.60;;;3.60;99.90;;;;;;4962153;28;20584;-66
2023/12/19 04:20:50;;;;;;;16.90;12.27;;;3.70;99.90;;;;;;4965764;28;20355;-66
2023/12/19 04:23:15;;;;;;;16.67;11.50;;;3.60;99.90;;;;;;4962274;28;20202;-66
2023/12/19 04:25:41;;;;;;;18.17;12.73;;;3.60;99.90;;;;;;4961019;28;20293;-66
2023/12/19 04:28:07;;;;;;;17.83;12.50;;;3.60;99.90;;;;;;4961956;28;20658;-67
2023/12/19 04:30:33;;;;;;;19.13;13.10;;;3.60;99.90;;;;;;4961745;28;20796;-67
2023/12/19 04:32:58;;;;;;;20.50;13.70;;;3.70;99.90;;;;;;4959228;28;20462;-67
2023/12/19 04:35:24;;;;;;;15.13;10.80;;;3.70;99.90;;;;;;4960385;28;20190;-66
2023/12/19 04:37:49;;;;;;;15.10;11.20;;;3.50;99.90;;;;;;4962801;28;20210;-67
2023/12/19 04:40:15;;;;;;;19.43;12.37;;;3.50;99.90;;;;;;4962478;28;20248;-66
2023/12/19 04:42:40;;;;;;;20.90;12.60;;;3.50;99.90;;;;;;4962665;28;20229;-66
2023/12/19 04:45:07;;;;;;;16.70;11.77;;;3.60;99.90;;;;;;4958410;28;20203;-67
2023/12/19 04:47:32;;;;;;;18.17;12.93;;;3.70;99.90;;;;;;4958316;28;20190;-67
2023/12/19 04:49:58;;;;;;;16.70;12.20;;;3.40;99.90;;;;;;4963972;28;20411;-67
2023/12/19 04:52:23;;;;;;;16.17;11.50;;;3.40;99.90;;;;;;4956672;28;20190;-67
2023/12/19 04:54:49;;;;;;;13.40;10.10;;;3.40;99.90;;;;;;4961926;28;20310;-67
2023/12/19 04:57:14;;;;;;;18.43;12.00;;;3.40;99.90;;;;;;4958760;28;20274;-67
2023/12/19 04:59:41;;;;;;;13.70;10.53;;;3.40;99.90;;;;;;4959425;28;20188;-67
2023/12/19 05:02:06;;;;;;;18.50;12.20;;;3.30;99.90;;;;;;4963763;28;20185;-68
2023/12/19 05:04:32;;;;;;;17.53;11.30;;;3.30;99.90;;;;;;4960093;28;20492;-68
2023/12/19 05:06:58;;;;;;;18.93;12.73;;;3.30;99.90;;;;;;4961651;28;20211;-68
2023/12/19 05:09:25;;;;;;;14.50;11.00;;;3.30;99.90;;;;;;4962460;28;20198;-68
2023/12/19 05:11:51;;;;;;;13.63;10.03;;;3.30;99.90;;;;;;4961043;28;20177;-68
2023/12/19 05:14:16;;;;;;;16.90;10.87;;;3.30;99.90;;;;;;4962581;28;20464;-67
2023/12/19 05:16:42;;;;;;;14.33;11.00;;;3.30;99.90;;;;;;4964970;28;20195;-67
2023/12/19 05:19:07;;;;;;;14.50;11.20;;;3.30;99.90;;;;;;4964932;28;20282;-67
2023/12/19 05:21:37;;;;;;;15.23;11.00;;;3.20;99.90;;;;;;4964839;28;20257;-68
2023/12/19 05:24:03;;;;;;;15.33;11.40;;;3.10;99.90;;;;;;4964929;28;20613;-67
2023/12/19 05:26:28;;;;;;;18.50;10.80;;;3.10;99.90;;;;;;4959920;28;20470;-67
2023/12/19 05:28:57;;;;;;;17.90;11.43;;;3.10;99.90;;;;;;4964130;28;20439;-68
2023/12/19 05:31:23;;;;;;;15.70;11.17;;;3.00;99.90;;;;;;4960090;28;20669;-68
2023/12/19 05:33:48;;;;;;;19.03;10.43;;;3.10;99.90;;;;;;4964582;28;20608;-68
2023/12/19 05:36:14;;;;;;;15.60;10.70;;;3.30;99.90;;;;;;4960857;28;20191;-68
2023/12/19 05:38:40;;;;;;;15.80;10.53;;;3.20;99.90;;;;;;4962790;28;20567;-68
2023/12/19 05:41:05;;;;;;;14.93;10.50;;;3.10;99.90;;;;;;4960094;28;20442;-68
2023/12/19 05:43:31;;;;;;;14.70;10.57;;;3.10;99.90;;;;;;4962947;28;20206;-67
2023/12/19 05:45:57;;;;;;;16.70;10.33;;;3.10;99.90;;;;;;4962682;28;20707;-68
2023/12/19 05:48:23;;;;;;;18.50;10.20;;;3.10;99.90;;;;;;4957423;28;20218;-67
2023/12/19 05:50:49;;;;;;;13.87;10.23;;;3.10;99.90;;;;;;4958850;28;20487;-68
2023/12/19 05:53:15;;;;;;;14.67;10.37;;;3.10;99.90;;;;;;4963278;28;20198;-68
2023/12/19 05:55:42;;;;;;;15.60;10.30;;;3.10;99.90;;;;;;4962909;28;20414;-68
2023/12/19 05:58:08;;;;;;;14.17;10.23;;;3.10;99.90;;;;;;4960750;28;20430;-67
2023/12/19 06:00:34;;;;;;;15.73;11.23;;;3.10;99.90;;;;;;4957163;28;20436;-68
2023/12/19 06:03:00;;;;;;;16.43;11.03;;;3.10;99.90;;;;;;4964841;28;20863;-68
2023/12/19 06:05:25;;;;;;;14.80;10.27;;;3.00;99.90;;;;;;4956706;28;20565;-68
2023/12/19 06:07:51;;;;;;;18.07;10.77;;;3.00;99.90;;;;;;4962476;28;20554;-66
2023/12/19 06:10:17;;;;;;;14.70;10.20;;;3.10;99.90;;;;;;4958252;28;20269;-66
2023/12/19 06:12:43;;;;;;;15.40;10.47;;;3.00;99.90;;;;;;4961781;28;20550;-67
2023/12/19 06:15:13;;;;;;;16.40;11.13;;;2.90;99.90;;;;;;4957696;28;20416;-67
2023/12/19 06:17:46;;;;;;;16.43;11.50;;;3.10;99.90;;;;;;4951346;28;20190;-66
2023/12/19 06:20:12;;;;;;;18.33;10.53;;;3.10;99.90;;;;;;4958904;28;20426;-66
2023/12/19 06:22:39;;;;;;;17.70;11.87;;;3.10;99.90;;;;;;4955078;28;20516;-66
2023/12/19 06:25:06;;;;;;;17.70;10.50;;;3.20;99.90;;;;;;4963436;28;20469;-66
2023/12/19 06:27:32;;;;;;;19.43;11.60;;;3.10;99.90;;;;;;4953028;28;20435;-67
2023/12/19 06:29:58;;;;;;;15.33;10.97;;;3.20;99.90;;;;;;4962401;28;20827;-67
2023/12/19 06:32:24;;;;;;;14.87;9.90;;;3.20;99.90;;;;;;4960499;28;20437;-66
2023/12/19 06:34:49;;;;;;;15.80;10.70;;;3.20;99.90;;;;;;4960752;28;20210;-67
2023/12/19 06:37:15;;;;;;;21.40;12.93;;;3.30;99.90;;;;;;4960641;28;20190;-67
2023/12/19 06:39:40;;;;;;;13.23;10.10;;;3.30;99.90;;;;;;4959192;28;20301;-67
2023/12/19 06:42:06;;;;;;;13.60;9.50;;;3.30;99.90;;;;;;4960855;28;20175;-67
2023/12/19 06:44:32;;;;;;;18.70;10.97;;;3.10;99.90;;;;;;4957975;28;20914;-67
2023/12/19 06:46:57;;;;;;;12.33;9.13;;;3.10;99.90;;;;;;4960497;28;20218;-67
2023/12/19 06:49:24;;;;;;;18.27;11.53;;;3.10;99.90;;;;;;4956045;28;20742;-67
2023/12/19 06:51:50;;;;;;;14.07;9.57;;;3.10;99.90;;;;;;4960758;28;20181;-67
2023/12/19 06:54:16;;;;;;;16.53;10.37;;;3.00;99.90;;;;;;4958555;28;21134;-67
2023/12/19 06:56:42;;;;;;;19.07;11.20;;;3.10;99.90;;;;;;4960385;28;20679;-67
2023/12/19 06:59:08;;;;;;;15.60;9.77;;;3.00;99.90;;;;;;4959390;28;20422;-67
2023/12/19 07:01:34;;;;;;;15.70;10.30;;;2.90;99.90;;;;;;4965156;28;20215;-67
2023/12/19 07:03:59;;;;;;;14.57;10.17;;;2.90;99.90;;;;;;4973095;28;20566;-67
2023/12/19 07:06:25;;;;;;;13.20;9.67;;;2.90;99.90;;;;;;4966067;28;20206;-66
2023/12/19 07:08:51;;;;;;;14.40;9.73;;;3.00;99.90;;;;;;4961741;28;20203;-67
2023/12/19 07:11:16;;;;;;;17.43;10.63;;;2.90;99.90;;;;;;4957606;28;20211;-67
2023/12/19 07:13:43;;;;;;;15.00;10.23;;;3.00;99.90;;;;;;4958485;28;20211;-67
2023/12/19 07:16:13;;;;;;;14.53;10.20;;;2.90;99.90;;;;;;4959695;28;20508;-67
2023/12/19 07:18:40;;;;;;;14.20;10.20;;;2.80;99.90;;;;;;4960522;28;20929;-67
2023/12/19 07:21:06;;;;;;;16.53;10.53;;;2.70;99.90;;;;;;4963927;28;20497;-67
2023/12/19 07:23:32;;;;;;;15.67;10.97;;;2.90;99.90;;;;;;4963577;28;20449;-67
2023/12/19 07:25:58;;;;;;;16.27;10.70;;;2.90;99.90;;;;;;4964399;28;20827;-67
2023/12/19 07:28:23;;;;;;;18.30;11.70;;;2.80;99.90;;;;;;4963516;28;20186;-67
2023/12/19 07:30:49;;;;;;;14.03;9.70;;;2.70;99.90;;;;;;4965295;28;20186;-67
2023/12/19 07:33:15;;;;;;;14.20;9.67;;;2.80;99.90;;;;;;4961889;28;20209;-67
2023/12/19 07:35:41;;;;;;;17.17;10.07;;;2.80;99.90;;;;;;4963931;28;20425;-68
2023/12/19 07:38:07;;;;;;;17.10;10.53;;;2.70;99.90;;;;;;4963736;28;20631;-67
2023/12/19 07:40:32;;;;;;;16.83;11.57;;;2.70;99.90;;;;;;4964470;28;20449;-67
2023/12/19 07:42:58;;;;;;;15.10;9.67;;;2.70;99.90;;;;;;4964128;28;20887;-67
2023/12/19 07:45:23;;;;;;;19.83;12.40;;;2.70;99.90;;;;;;4962431;28;20322;-68
2023/12/19 07:47:51;;;;;;;16.10;11.30;;;2.70;99.90;;;;;;4962038;28;20186;-67
2023/12/19 07:50:17;;;;;;;16.90;10.67;;;2.80;99.90;;;;;;4962664;28;20179;-67
2023/12/19 07:52:42;;;;;;;18.83;11.40;;;2.70;99.90;;;;;;4961279;28;20418;-67
2023/12/19 07:55:10;;;;;;;17.27;10.80;;;2.70;99.90;;;;;;4964670;28;20206;-66
2023/12/19 07:57:37;;;;;;;18.37;11.40;;;2.80;99.90;;;;;;4961058;28;20189;-66
2023/12/19 08:00:03;;;;;;;20.17;11.20;;;2.80;99.90;;;;;;4965671;28;20417;-67
2023/12/19 08:02:32;;;;;;;16.00;10.67;;;2.90;99.90;;;;;;4961201;28;20446;-66
2023/12/19 08:04:58;;;;;;;16.53;11.60;;;2.90;99.90;;;;;;4964960;28;20528;-66
2023/12/19 08:07:23;;;;;;;15.57;10.80;;;2.80;99.90;;;;;;4964427;28;20438;-66
2023/12/19 08:09:49;;;;;;;16.23;10.40;;;3.00;99.90;;;;;;4962601;28;20476;-66
2023/12/19 08:12:14;;;;;;;19.53;11.20;;;3.00;99.90;;;;;;4965073;28;20184;-67
2023/12/19 08:14:40;;;;;;;15.60;10.50;;;2.90;99.90;;;;;;4962921;28;20198;-66
2023/12/19 08:17:06;;;;;;;16.23;11.43;;;2.80;99.90;;;;;;4963815;28;20654;-66
2023/12/19 08:19:31;;;;;;;17.03;12.20;;;2.80;99.90;;;;;;4961618;28;20191;-66
2023/12/19 08:21:58;;;;;;;17.40;10.83;;;2.90;99.90;;;;;;4964707;28;20286;-67
2023/12/19 08:24:25;;;;;;;17.27;11.00;;;2.80;99.90;;;;;;4960846;28;20215;-67
2023/12/19 08:26:52;;;;;;;15.60;10.67;;;3.00;99.90;;;;;;4962031;28;20563;-67
2023/12/19 08:29:18;;;;;;;16.73;10.77;;;3.00;99.90;;;;;;4964627;28;20457;-67
2023/12/19 08:31:45;;;;;;;16.37;10.37;;;3.00;99.90;;;;;;4962687;28;20438;-67
2023/12/19 08:34:11;;;;;;;15.60;10.40;;;3.00;99.90;;;;;;4962370;28;20457;-67
2023/12/19 08:36:36;;;;;;;15.40;11.63;;;3.10;99.90;;;;;;4966080;28;21108;-67
2023/12/19 08:39:02;;;;;;;17.83;11.60;;;3.10;99.90;;;;;;4963237;28;20277;-67
2023/12/19 08:41:28;;;;;;;14.30;9.87;;;3.20;99.90;;;;;;4978303;28;20194;-67
2023/12/19 08:43:54;;;;;;;17.23;11.00;;;3.20;99.90;;;;;;4964905;28;20455;-67
2023/12/19 08:46:19;;;;;;;14.97;10.37;;;3.20;99.90;;;;;;4962767;28;20575;-67
2023/12/19 08:48:49;;;;;;;16.87;10.40;;;3.20;99.90;;;;;;4956358;28;20222;-67
2023/12/19 08:51:15;;;;;;;13.73;9.20;;;3.30;99.90;;;;;;4956907;28;20181;-67
2023/12/19 08:53:41;;;;;;;16.70;11.50;;;3.30;99.90;;;;;;4962263;28;20457;-67
2023/12/19 08:56:07;;;;;;;14.00;9.03;;;3.20;99.90;;;;;;4958519;28;20840;-67
2023/12/19 08:58:32;;;;;;;13.93;9.50;;;3.10;99.90;;;;;;4959230;28;20218;-67
2023/12/19 09:00:58;;;;;;;16.53;9.97;;;3.10;99.90;;;;;;4961938;28;20183;-68
2023/12/19 09:03:24;;;;;;;12.67;9.37;;;3.10;99.90;;;;;;4960470;28;20775;-68
2023/12/19 09:05:50;;;;;;;14.43;9.93;;;3.20;99.90;;;;;;4958477;28;20227;-67
2023/12/19 09:08:16;;;;;;;15.47;9.30;;;3.30;99.90;;;;;;4962473;28;20436;-67
2023/12/19 09:10:42;;;;;;;14.53;10.20;;;3.40;99.90;;;;;;4962090;28;20628;-67
2023/12/19 09:13:07;;;;;;;12.97;9.27;;;3.50;99.90;;;;;;4962479;28;20536;-67
2023/12/19 09:15:35;;;;;;;14.47;10.17;;;3.60;99.90;;;;;;4958250;28;20183;-67
2023/12/19 09:18:00;;;;;;;16.20;11.80;;;3.60;99.90;;;;;;4959703;28;20233;-67
2023/12/19 09:20:26;;;;;;;14.87;10.17;;;3.50;99.90;;;;;;4964456;28;20426;-67
2023/12/19 09:22:51;;;;;;;16.40;9.10;;;3.50;99.90;;;;;;4959178;28;20755;-67
2023/12/19 09:25:18;;;;;;;13.97;10.30;;;3.40;99.90;;;;;;4959903;28;20206;-67
2023/12/19 09:27:44;;;;;;;14.83;9.73;;;3.40;99.90;;;;;;4960203;28;20600;-67
2023/12/19 09:30:11;;;;;;;16.17;10.23;;;3.40;99.90;;;;;;4962127;28;20769;-67
2023/12/19 09:32:38;;;;;;;16.23;9.97;;;3.30;99.90;;;;;;4962993;28;20433;-66
2023/12/19 09:35:04;;;;;;;14.00;9.67;;;3.40;99.90;;;;;;4961434;28;20418;-67
2023/12/19 09:37:30;;;;;;;16.03;10.23;;;3.50;99.90;;;;;;4958857;28;20439;-67
2023/12/19 09:39:56;;;;;;;16.90;10.70;;;3.60;99.90;;;;;;4959197;28;20474;-68
2023/12/19 09:42:21;;;;;;;14.00;10.20;;;3.60;99.90;;;;;;4959555;28;20178;-68
2023/12/19 09:44:51;;;;;;;10.90;8.50;;;3.70;99.90;;;;;;4960227;28;20198;-67
2023/12/19 09:47:29;;;;;;;13.80;9.90;;;3.80;99.90;;;;;;4961813;28;20707;-68
2023/12/19 09:50:00;;;;;;;12.70;9.30;;;3.70;99.90;;;;;;4958128;28;20429;-68
2023/12/19 09:52:27;;;;;;;13.57;10.17;;;3.80;99.90;;;;;;4956944;28;20937;-68
2023/12/19 09:54:53;;;;;;;10.73;8.73;;;3.80;99.90;;;;;;4962915;28;20441;-68
2023/12/19 09:57:21;;;;;;;13.67;9.23;;;3.90;99.90;;;;;;4961801;28;20461;-68
2023/12/19 09:59:47;;;;;;;15.97;10.47;;;4.00;99.90;;;;;;4960221;28;20895;-67
2023/12/19 10:02:17;;;;;;;13.87;9.40;;;4.00;99.90;;;;;;4957773;28;20497;-69
2023/12/19 10:04:47;;;;;;;14.73;9.70;;;4.10;99.90;;;;;;4950452;28;20484;-68
2023/12/19 10:07:14;;;;;;;13.97;9.20;;;4.20;99.90;;;;;;4947999;28;20505;-68
2023/12/19 10:09:55;;;;;;;11.40;7.70;;;4.10;99.90;;;;;;4956959;28;20434;-68
2023/12/19 10:12:21;;;;;;;15.97;7.60;;;4.20;99.90;;;;;;4960634;28;20521;-68
2023/12/19 10:14:47;;;;;;;12.30;7.53;;;4.20;99.90;;;;;;4962049;28;20516;-68
2023/12/19 10:17:20;;;;;;;13.67;6.70;;;4.30;99.90;;;;;;4960579;28;20430;-68
2023/12/19 10:19:45;;;;;;;10.47;7.77;;;4.30;99.90;;;;;;4956705;28;20184;-68
2023/12/19 10:22:20;;;;;;;11.20;7.57;;;4.20;99.90;;;;;;4959825;28;20426;-68
2023/12/19 10:24:46;;;;;;;12.10;7.83;;;4.30;99.90;;;;;;4959064;28;20271;-68
2023/12/19 10:27:12;;;;;;;10.27;7.37;;;4.40;99.90;;;;;;4957030;28;20637;-68
2023/12/19 10:29:38;;;;;;;12.37;8.27;;;4.30;99.90;;;;;;4960677;28;20553;-68
2023/12/19 10:32:19;;;;;;;10.83;7.10;;;4.40;99.90;;;;;;4958064;28;20214;-68
2023/12/19 10:34:46;;;;;;;10.57;8.50;;;4.50;99.90;;;;;;4953698;28;20836;-68
2023/12/19 10:37:21;;;;;;;11.63;8.40;;;4.50;99.90;;;;;;4955338;28;20426;-68
2023/12/19 10:39:49;;;;;;;12.33;9.10;;;4.60;99.90;;;;;;4955561;28;20450;-68
2023/12/19 10:42:18;;;;;;;10.70;7.60;;;4.60;99.90;;;;;;4958880;28;20450;-67
2023/12/19 10:44:45;;;;;;;9.10;7.00;;;4.60;99.90;;;;;;4959034;28;20537;-67
2023/12/19 10:47:11;;;;;;;12.60;8.20;;;4.60;99.90;;;;;;4957706;28;20491;-68
2023/12/19 10:49:38;;;;;;;15.13;9.50;;;4.70;99.90;;;;;;4956228;28;20442;-68
2023/12/19 10:52:05;;;;;;;12.23;8.93;;;4.80;99.90;;;;;;4958256;28;20190;-68
2023/12/19 10:54:34;;;;;;;12.17;8.80;;;4.80;99.90;;;;;;4963622;28;21050;-68
2023/12/19 10:57:16;;;;;;;11.20;8.20;;;4.90;99.90;;;;;;4960029;28;20469;-67
2023/12/19 10:59:57;;;;;;;13.87;9.23;;;5.10;99.90;;;;;;4959806;28;20429;-68
2023/12/19 11:02:47;;;;;;;11.87;8.60;;;5.20;99.90;;;;;;4960785;28;20504;-68
2023/12/19 11:05:37;;;;;;;9.83;8.30;;;5.20;99.90;;;;;;4964018;28;20458;-68
2023/12/19 11:08:05;;;;;;;10.93;8.70;;;5.40;99.90;;;;;;4955617;28;20450;-68
2023/12/19 11:10:37;;;;;;;10.13;7.33;;;5.50;99.90;;;;;;4961065;28;20432;-69
2023/12/19 11:13:04;;;;;;;11.03;7.83;;;5.40;99.90;;;;;;4960467;28;20478;-68
2023/12/19 11:15:30;;;;;;;11.47;8.77;;;5.60;99.90;;;;;;4953142;28;20941;-68
2023/12/19 11:18:07;;;;;;;11.07;7.60;;;5.60;99.90;;;;;;4958341;28;20529;-68
2023/12/19 11:21:11;;;;;;;9.73;7.93;;;5.70;99.90;;;;;;4962514;28;20446;-68
2023/12/19 11:24:18;;;;;;;12.00;7.90;;;5.80;99.90;;;;;;4959305;28;20467;-68
2023/12/19 11:26:52;;;;;;;13.07;9.60;;;6.00;99.90;;;;;;4969092;28;20464;-68
2023/12/19 11:29:46;;;;;;;11.80;10.10;;;6.20;99.90;;;;;;4964191;28;20445;-68
2023/12/19 11:32:27;;;;;;;9.53;5.80;;;6.30;99.90;;;;;;4961609;28;20441;-69
2023/12/19 11:35:13;;;;;;;7.77;5.07;;;6.20;99.90;;;;;;4963673;28;20426;-68
2023/12/19 11:37:42;;;;;;;5.27;3.37;;;6.10;99.90;;;;;;4961579;28;20453;-68
2023/12/19 11:40:10;;;;;;;5.40;3.80;;;6.20;99.90;;;;;;4963644;28;20438;-68
2023/12/19 11:42:39;;;;;;;6.20;4.80;;;6.10;99.90;;;;;;4960468;28;20506;-69
2023/12/19 11:45:19;;;;;;;6.50;4.47;;;6.30;99.90;;;;;;4953493;28;20473;-68
2023/12/19 11:47:47;;;;;;;6.80;5.20;;;6.40;99.90;;;;;;4954489;28;20445;-68
2023/12/19 11:50:48;;;;;;;7.90;5.37;;;6.40;99.90;;;;;;4961336;28;20452;-69
2023/12/19 11:53:23;;;;;;;8.93;5.30;;;6.50;99.90;;;;;;4959056;28;21183;-68
2023/12/19 11:55:48;;;;;;;6.43;4.60;;;6.60;99.90;;;;;;4957745;28;20417;-69
2023/12/19 11:58:14;;;;;;;6.70;4.60;;;6.70;99.90;;;;;;4967876;28;20468;-68
2023/12/19 12:00:40;;;;;;;7.03;5.30;;;6.70;99.90;;;;;;4967393;28;20181;-66
2023/12/19 12:03:10;;;;;;;8.77;5.90;;;6.70;99.90;;;;;;4962044;28;20206;-67
2023/12/19 12:05:39;;;;;;;7.40;4.90;;;6.80;99.90;;;;;;4963682;28;20474;-68
2023/12/19 12:08:05;;;;;;;8.60;6.00;;;6.90;99.90;;;;;;4964735;28;20429;-67
2023/12/19 12:10:30;;;;;;;9.40;5.50;;;6.90;99.90;;;;;;4963507;28;20456;-67
2023/12/19 12:12:59;;;;;;;7.53;5.93;;;6.90;99.90;;;;;;4965746;28;20438;-67
2023/12/19 12:15:26;;;;;;;8.73;6.60;;;6.80;99.90;;;;;;4963313;28;20190;-67
2023/12/19 12:18:01;;;;;;;9.20;6.77;;;6.80;99.90;;;;;;4959361;28;20522;-68
2023/12/19 12:20:27;;;;;;;9.40;7.37;;;6.70;99.90;;;;;;4948905;28;20446;-68
2023/12/19 12:22:55;;;;;;;8.63;6.73;;;6.70;99.90;;;;;;4951367;28;20465;-68
2023/12/19 12:25:22;;;;;;;9.77;7.00;;;6.80;99.90;;;;;;4955030;28;20211;-68
2023/12/19 12:27:48;;;;;;;9.20;7.00;;;6.60;99.90;;;;;;4955909;28;20850;-67
2023/12/19 12:30:14;;;;;;;8.37;6.67;;;6.70;99.90;;;;;;4958245;28;20441;-67
2023/12/19 12:32:40;;;;;;;10.60;7.60;;;6.70;99.90;;;;;;4947874;28;20450;-68
2023/12/19 12:35:31;;;;;;;8.47;6.03;;;6.80;99.90;;;;;;4957679;28;20278;-67
2023/12/19 12:38:01;;;;;;;8.83;6.97;;;6.80;99.90;;;;;;4961279;28;20422;-67
2023/12/19 12:40:27;;;;;;;7.90;5.83;;;6.80;99.90;;;;;;4964729;28;20941;-70